Time;durP1;ratioP1;P1;durP2;ratioP2;P2;SDS_P1;SDS_P2;PMS_P1;PMS_P2;Temp;Humidity;BMP_temperature;BMP_pressure;BME280_temperature;BME280_humidity;BME280_pressure;Samples;Min_cycle;Max_cycle;Signal;HPM_P1;HPM_P2
2021/09/06 00:02:20;;;;;;;7.23;4.47;;;;;;;5.10;75.40;99947.95;2281820;78;20962;-81
2021/09/06 00:05:21;;;;;;;8.13;4.73;;;;;;;5.08;75.47;99946.98;2281627;78;21362;-82
2021/09/06 00:08:22;;;;;;;8.03;4.60;;;;;;;5.04;75.39;99955.40;2281280;78;21254;-82
2021/09/06 00:11:22;;;;;;;7.53;4.53;;;;;;;5.00;75.31;99959.05;2281236;78;21356;-81
2021/09/06 00:14:23;;;;;;;6.43;3.90;;;;;;;4.96;75.28;99964.88;2281196;78;20993;-80
2021/09/06 00:17:23;;;;;;;7.53;4.43;;;;;;;4.92;75.36;99964.23;2281197;78;21004;-81
2021/09/06 00:20:23;;;;;;;7.57;4.50;;;;;;;4.92;75.46;99961.64;2281251;78;20930;-80
2021/09/06 00:23:24;;;;;;;6.10;4.17;;;;;;;4.93;75.36;99963.42;2281128;78;20966;-80
2021/09/06 00:26:25;;;;;;;9.87;4.00;;;;;;;4.89;75.30;99964.96;2281206;77;20934;-80
2021/09/06 00:29:25;;;;;;;4.40;4.00;;;;;;;4.89;75.27;99957.20;2281155;78;20962;-82
2021/09/06 00:32:25;;;;;;;7.93;4.33;;;;;;;4.86;75.23;99958.33;2281326;77;20961;-81
2021/09/06 00:35:26;;;;;;;4.90;3.73;;;;;;;4.83;75.08;99963.34;2281344;78;20997;-80
2021/09/06 00:38:27;;;;;;;10.83;4.27;;;;;;;4.75;75.05;99960.77;2281211;78;20933;-80
2021/09/06 00:41:29;;;;;;;7.63;4.50;;;;;;;4.69;75.17;99955.27;2260066;78;20982;-82
2021/09/06 00:44:29;;;;;;;6.70;4.10;;;;;;;4.63;75.10;99954.95;2281447;78;20926;-81
2021/09/06 00:47:31;;;;;;;9.10;3.90;;;;;;;4.55;74.99;99955.84;2281171;78;21419;-83
2021/09/06 00:50:32;;;;;;;7.43;4.30;;;;;;;4.52;75.16;99958.66;2280924;78;20954;-82
2021/09/06 00:53:32;;;;;;;6.43;3.97;;;;;;;4.50;75.09;99965.45;2281172;78;21368;-83
2021/09/06 00:56:33;;;;;;;5.97;4.30;;;;;;;4.45;75.35;99959.62;2281033;78;20986;-83
2021/09/06 00:59:34;;;;;;;8.57;4.17;;;;;;;4.44;75.33;99967.30;2280830;78;21072;-82
2021/09/06 01:02:35;;;;;;;6.73;4.23;;;;;;;4.39;75.21;99964.88;2250812;77;21007;-82
2021/09/06 01:05:35;;;;;;;5.30;3.87;;;;;;;4.34;75.24;99962.05;2248259;78;20999;-82
2021/09/06 01:08:36;;;;;;;6.37;3.90;;;;;;;4.32;75.27;99958.45;2248971;78;20956;-82
2021/09/06 01:11:36;;;;;;;6.67;4.13;;;;;;;4.28;75.23;99956.51;2249040;79;21296;-83
2021/09/06 01:14:37;;;;;;;7.73;3.77;;;;;;;4.25;75.33;99958.92;2248889;79;21339;-82
2021/09/06 01:17:37;;;;;;;5.53;3.90;;;;;;;4.23;75.42;99959.24;2249046;78;20905;-82
2021/09/06 01:20:37;;;;;;;6.67;4.00;;;;;;;4.22;75.42;99961.34;2248792;78;21206;-84
2021/09/06 01:23:38;;;;;;;4.60;3.53;;;;;;;4.20;75.38;99962.95;2248776;79;20991;-82
2021/09/06 01:26:38;;;;;;;59.13;7.30;;;;;;;4.19;75.44;99960.28;2248618;79;21356;-78
2021/09/06 01:29:39;;;;;;;11.17;5.13;;;;;;;4.16;75.44;99959.72;2248914;78;20943;-83
2021/09/06 01:32:39;;;;;;;6.10;3.93;;;;;;;4.16;75.67;99958.02;2248120;78;20995;-83
2021/09/06 01:35:40;;;;;;;7.50;4.20;;;;;;;4.14;75.32;99960.03;2248771;78;21006;-82
2021/09/06 01:38:40;;;;;;;9.30;4.30;;;;;;;4.07;75.30;99952.35;2249129;79;20963;-83
2021/09/06 01:41:41;;;;;;;6.87;4.17;;;;;;;4.02;75.21;99957.67;2249160;78;20975;-84
2021/09/06 01:44:41;;;;;;;8.43;4.67;;;;;;;3.98;75.21;99961.29;2248748;78;21330;-82
2021/09/06 01:47:42;;;;;;;14.33;4.63;;;;;;;3.90;75.23;99960.86;2248995;78;20943;-83
2021/09/06 01:50:42;;;;;;;7.33;4.60;;;;;;;3.88;75.49;99961.58;2248833;79;20975;-83
2021/09/06 01:53:43;;;;;;;11.33;4.27;;;;;;;3.88;75.47;99962.87;2249042;78;20956;-83
2021/09/06 01:56:43;;;;;;;5.00;3.90;;;;;;;3.80;75.29;99958.17;2249022;78;21354;-82
2021/09/06 01:59:44;;;;;;;8.30;4.20;;;;;;;3.77;75.44;99968.33;2249103;78;20943;-82
2021/09/06 02:02:44;;;;;;;6.53;4.27;;;;;;;3.72;75.44;99967.18;2285409;77;21070;-83
2021/09/06 02:05:45;;;;;;;9.00;3.83;;;;;;;3.66;75.47;99963.36;2291016;78;20987;-82
2021/09/06 02:08:45;;;;;;;8.53;4.43;;;;;;;3.64;75.52;99959.41;2291170;78;20967;-84
2021/09/06 02:11:46;;;;;;;6.33;4.73;;;;;;;3.61;75.53;99965.69;2290927;77;20967;-84
2021/09/06 02:14:46;;;;;;;26.47;5.10;;;;;;;3.57;75.53;99965.02;2291504;78;20967;-82
2021/09/06 02:17:47;;;;;;;9.83;3.93;;;;;;;3.58;75.81;99964.62;2290693;78;20944;-82
2021/09/06 02:20:47;;;;;;;7.13;4.30;;;;;;;3.60;75.95;99962.61;2290657;78;20963;-85
2021/09/06 02:23:47;;;;;;;12.80;4.03;;;;;;;3.58;75.58;99962.92;2290976;78;20967;-82
2021/09/06 02:26:48;;;;;;;7.03;4.20;;;;;;;3.54;75.54;99966.13;2291013;78;21007;-83
2021/09/06 02:29:48;;;;;;;11.63;5.00;;;;;;;3.49;75.53;99966.27;2291317;78;20933;-83
2021/09/06 02:32:49;;;;;;;8.53;4.40;;;;;;;3.47;75.65;99967.48;2290911;78;21391;-85
2021/09/06 02:35:50;;;;;;;5.67;3.97;;;;;;;3.47;75.58;99966.59;2291408;78;20995;-83
2021/09/06 02:38:50;;;;;;;9.83;6.03;;;;;;;3.42;75.66;99962.81;2291414;78;20948;-82
2021/09/06 02:41:51;;;;;;;11.57;7.50;;;;;;;3.39;75.64;99958.37;2291018;78;20999;-85
2021/09/06 02:44:51;;;;;;;12.20;8.57;;;;;;;3.38;75.62;99954.41;2290972;78;21026;-80
2021/09/06 02:47:52;;;;;;;10.20;6.43;;;;;;;3.32;75.59;99958.81;2291119;78;20963;-82
2021/09/06 02:50:52;;;;;;;16.93;6.13;;;;;;;3.30;75.66;99958.23;2291236;78;21427;-82
2021/09/06 02:53:53;;;;;;;28.57;7.67;;;;;;;3.29;75.75;99962.51;2291166;78;20948;-83
2021/09/06 02:56:53;;;;;;;7.47;5.30;;;;;;;3.29;75.97;99960.33;2291032;78;20988;-83
2021/09/06 02:59:54;;;;;;;6.60;4.93;;;;;;;3.24;75.62;99965.63;2291269;78;20980;-83
2021/09/06 03:02:54;;;;;;;6.57;4.23;;;;;;;3.18;75.70;99961.88;2282883;78;21039;-83
2021/09/06 03:05:56;;;;;;;9.30;5.17;;;;;;;3.16;75.63;99966.06;2281236;77;20973;-82
2021/09/06 03:08:57;;;;;;;31.70;6.57;;;;;;;3.14;75.68;99962.50;2281066;78;21021;-83
2021/09/06 03:11:57;;;;;;;9.63;5.57;;;;;;;3.15;75.97;99962.99;2281238;78;20981;-82
2021/09/06 03:15:01;;;;;;;10.47;4.87;;;;;;;3.15;75.56;99953.96;2280738;78;21479;-83
2021/09/06 03:18:01;;;;;;;10.83;4.63;;;;;;;3.12;75.59;99958.94;2280743;78;20930;-82
2021/09/06 03:21:02;;;;;;;9.60;4.60;;;;;;;3.09;75.43;99952.72;2280637;78;20950;-82
2021/09/06 03:24:02;;;;;;;8.43;5.53;;;;;;;3.05;75.40;99953.33;2281328;78;21360;-80
2021/09/06 03:27:03;;;;;;;8.23;5.67;;;;;;;2.98;75.44;99953.38;2280954;78;20950;-81
2021/09/06 03:30:03;;;;;;;11.27;5.83;;;;;;;2.95;76.53;99951.91;2281081;78;20957;-80
2021/09/06 03:33:04;;;;;;;8.20;5.23;;;;;;;2.94;75.57;99954.39;2280893;78;21012;-83
2021/09/06 03:36:04;;;;;;;9.87;5.13;;;;;;;2.91;75.67;99959.36;2281172;78;20969;-82
2021/09/06 03:39:05;;;;;;;12.73;5.93;;;;;;;2.92;75.92;99956.88;2281029;78;20958;-82
2021/09/06 03:42:11;;;;;;;8.70;4.87;;;;;;;2.88;75.70;99957.09;2280464;78;20990;-79
2021/09/06 03:45:12;;;;;;;10.43;4.40;;;;;;;2.90;76.02;99961.05;2280465;78;20976;-81
2021/09/06 03:48:12;;;;;;;8.80;4.17;;;;;;;2.86;75.72;99958.69;2279763;78;20929;-80
2021/09/06 03:51:13;;;;;;;12.00;4.10;;;;;;;2.80;75.50;99958.72;2280157;78;20949;-82
2021/09/06 03:54:14;;;;;;;8.40;4.00;;;;;;;2.78;75.83;99959.92;2279911;78;20966;-82
2021/09/06 03:57:14;;;;;;;11.30;4.10;;;;;;;2.72;75.50;99963.42;2280460;78;21412;-81
2021/09/06 04:00:15;;;;;;;5.57;3.43;;;;;;;2.71;75.64;99958.17;2281025;78;20942;-81
2021/09/06 04:03:15;;;;;;;9.30;4.13;;;;;;;2.64;75.51;99958.20;2253198;77;20983;-81
2021/09/06 04:06:16;;;;;;;17.47;4.37;;;;;;;2.63;75.74;99954.24;2247990;78;20928;-82
2021/09/06 04:09:16;;;;;;;7.40;3.73;;;;;;;2.64;75.76;99955.63;2249252;78;20916;-81
2021/09/06 04:12:16;;;;;;;25.93;5.17;;;;;;;2.62;75.73;99952.47;2248806;78;20947;-79
2021/09/06 04:15:17;;;;;;;9.27;3.83;;;;;;;2.64;76.04;99947.00;2248695;79;21399;-82
2021/09/06 04:18:18;;;;;;;4.43;3.30;;;;;;;2.77;76.29;99947.83;2249219;79;21469;-81
2021/09/06 04:21:18;;;;;;;6.20;3.50;;;;;;;2.77;75.71;99949.12;2247299;79;20964;-78
2021/09/06 04:24:19;;;;;;;7.93;3.67;;;;;;;2.73;75.55;99947.55;2247144;78;20982;-81
2021/09/06 04:27:19;;;;;;;7.07;3.40;;;;;;;2.72;75.42;99948.35;2248069;78;21211;-83
2021/09/06 04:30:20;;;;;;;15.47;4.13;;;;;;;2.72;75.47;99956.09;2247647;78;20943;-81
2021/09/06 04:33:20;;;;;;;11.43;3.70;;;;;;;2.68;75.64;99954.13;2246925;79;20974;-80
2021/09/06 04:36:21;;;;;;;6.40;3.90;;;;;;;2.71;75.70;99955.59;2247621;79;21007;-82
2021/09/06 04:39:21;;;;;;;8.27;4.33;;;;;;;2.75;75.71;99953.69;2248502;79;20944;-82
2021/09/06 04:42:22;;;;;;;6.50;3.87;;;;;;;2.85;75.93;99953.05;2248113;78;20980;-83
2021/09/06 04:45:24;;;;;;;7.23;4.00;;;;;;;2.99;75.92;99959.02;2247262;79;21308;-81
2021/09/06 04:48:24;;;;;;;5.13;3.50;;;;;;;3.07;75.82;99956.50;2247545;79;20928;-85
2021/09/06 04:51:25;;;;;;;9.63;4.10;;;;;;;3.19;75.73;99966.64;2247194;78;21328;-82
2021/09/06 04:54:25;;;;;;;136.83;9.70;;;;;;;3.29;75.69;99964.20;2246633;78;20947;-78
2021/09/06 04:57:26;;;;;;;6.93;4.17;;;;;;;3.42;75.70;99964.11;2247345;79;20971;-81
2021/09/06 05:00:26;;;;;;;14.10;3.90;;;;;;;3.66;75.73;99970.70;2247936;78;20959;-78
2021/09/06 05:03:29;;;;;;;7.70;3.60;;;;;;;3.82;75.35;99966.89;2281319;77;21008;-77
2021/09/06 05:06:29;;;;;;;9.97;4.30;;;;;;;3.98;75.09;99962.58;2289639;77;21020;-78
2021/09/06 05:09:30;;;;;;;6.83;4.30;;;;;;;4.18;75.18;99967.55;2290857;78;20995;-80
2021/09/06 05:12:31;;;;;;;7.27;4.33;;;;;;;4.35;75.15;99970.28;2291301;78;20940;-80
2021/09/06 05:15:31;;;;;;;5.87;3.93;;;;;;;4.62;75.13;99969.98;2291186;78;20976;-79
2021/09/06 05:18:31;;;;;;;8.93;3.90;;;;;;;4.92;75.03;99975.88;2290927;78;20994;-80
2021/09/06 05:21:32;;;;;;;5.03;3.77;;;;;;;5.08;74.52;99978.44;2290215;78;20987;-79
2021/09/06 05:24:33;;;;;;;8.27;4.10;;;;;;;5.23;74.37;99970.60;2289200;78;20917;-80
2021/09/06 05:27:33;;;;;;;21.33;5.27;;;;;;;5.46;74.56;99974.34;2289215;78;20932;-81
2021/09/06 05:30:34;;;;;;;10.77;4.73;;;;;;;5.62;74.62;99975.18;2289876;78;21375;-81
2021/09/06 05:33:35;;;;;;;7.63;4.90;;;;;;;5.92;74.53;99978.81;2289246;77;21011;-82
2021/09/06 05:36:35;;;;;;;7.83;4.73;;;;;;;6.16;74.32;99968.76;2289729;78;21026;-80
2021/09/06 05:39:36;;;;;;;230.53;15.97;;;;;;;6.41;74.67;99970.78;2289750;78;20940;-80
2021/09/06 05:42:36;;;;;;;7.80;3.63;;;;;;;6.67;74.60;99970.27;2290142;78;20900;-82
2021/09/06 05:45:37;;;;;;;4.33;3.60;;;;;;;6.95;74.32;99967.22;2290409;78;20936;-83
2021/09/06 05:48:40;;;;;;;8.70;4.33;;;;;;;7.21;74.41;99916.41;2290165;78;21031;-82
2021/09/06 05:51:40;;;;;;;30.40;5.93;;;;;;;7.49;74.48;99965.20;2290495;78;20924;-83
2021/09/06 05:54:41;;;;;;;24.57;6.30;;;;;;;7.69;74.34;99974.72;2290980;78;20983;-81
2021/09/06 05:57:41;;;;;;;227.23;14.20;;;;;;;7.99;74.29;99968.19;2290775;78;20948;-81
2021/09/06 06:00:42;;;;;;;239.00;17.80;;;;;;;8.14;73.66;99973.11;2289906;78;20939;-80
2021/09/06 06:03:42;;;;;;;27.63;5.77;;;;;;;8.46;74.07;99978.28;2282492;78;20996;-81
2021/09/06 06:06:43;;;;;;;11.40;4.87;;;;;;;8.79;73.87;99976.09;2280465;78;20937;-80
2021/09/06 06:09:43;;;;;;;8.40;4.13;;;;;;;9.17;74.05;99972.67;2280726;78;20958;-83
2021/09/06 06:12:44;;;;;;;6.50;4.50;;;;;;;9.52;73.92;99969.56;2281097;78;20981;-81
2021/09/06 06:15:45;;;;;;;10.67;4.23;;;;;;;9.91;73.71;99973.05;2280464;78;20997;-82
2021/09/06 06:18:45;;;;;;;6.23;3.17;;;;;;;10.29;72.66;99972.09;2280650;78;20957;-81
2021/09/06 06:21:45;;;;;;;8.83;3.30;;;;;;;10.64;72.27;99971.47;2281185;78;21416;-82
2021/09/06 06:24:46;;;;;;;57.40;8.07;;;;;;;10.99;71.66;99963.75;2280758;78;20968;-81
2021/09/06 06:27:47;;;;;;;7.20;3.33;;;;;;;11.33;72.08;99968.20;2280561;78;20958;-81
2021/09/06 06:30:47;;;;;;;6.17;3.13;;;;;;;11.67;71.36;99972.57;2280688;78;20953;-80
2021/09/06 06:33:48;;;;;;;499.75;36.38;;;;;;;11.96;70.82;99970.70;2280733;78;21021;-80
2021/09/06 06:36:48;;;;;;;7.37;3.47;;;;;;;12.23;69.91;99969.20;2279534;78;21352;-80
2021/09/06 06:39:49;;;;;;;402.88;35.68;;;;;;;12.51;68.77;99973.31;2280561;78;20993;-77
2021/09/06 06:42:49;;;;;;;16.15;4.50;;;;;;;12.82;67.86;99973.54;2281129;78;21002;-82
2021/09/06 06:45:50;;;;;;;8.20;3.37;;;;;;;13.08;67.59;99981.11;2280545;78;20934;-81
2021/09/06 06:48:50;;;;;;;5.65;2.70;;;;;;;13.25;66.54;99985.83;2281177;78;20943;-82
2021/09/06 06:51:51;;;;;;;4.15;2.98;;;;;;;13.46;66.18;99986.23;2280862;78;21417;-81
2021/09/06 06:54:51;;;;;;;4.28;2.98;;;;;;;13.69;65.38;99986.21;2280625;78;20990;-80
2021/09/06 06:57:52;;;;;;;28.87;5.95;;;;;;;13.92;64.13;99990.57;2280620;78;21404;-83
2021/09/06 07:00:52;;;;;;;6.25;3.20;;;;;;;14.01;63.67;99991.15;2280992;78;20937;-81
2021/09/06 07:03:53;;;;;;;10.60;3.90;;;;;;;14.23;63.06;99994.56;2288222;77;20956;-80
2021/09/06 07:06:53;;;;;;;5.03;2.90;;;;;;;14.41;62.68;99990.02;2289465;78;21324;-83
2021/09/06 07:09:54;;;;;;;3.58;2.77;;;;;;;14.60;61.37;99998.64;2289684;78;20947;-82
2021/09/06 07:12:54;;;;;;;3.75;2.90;;;;;;;14.85;60.99;100003.83;2290514;78;20939;-80
2021/09/06 07:15:55;;;;;;;5.05;3.12;;;;;;;15.06;60.11;99999.27;2290470;78;21010;-80
2021/09/06 07:18:55;;;;;;;4.17;2.87;;;;;;;15.17;59.62;100001.60;2289646;78;20995;-82
2021/09/06 07:21:56;;;;;;;3.95;2.80;;;;;;;15.28;57.95;100001.29;2290192;78;21445;-81
2021/09/06 07:24:56;;;;;;;6.28;2.75;;;;;;;15.34;58.12;100004.85;2291014;78;20971;-81
2021/09/06 07:27:57;;;;;;;5.55;2.77;;;;;;;15.46;58.07;100004.55;2291233;78;20955;-82
2021/09/06 07:30:57;;;;;;;5.12;2.37;;;;;;;15.74;57.62;100000.52;2290880;78;20947;-82
2021/09/06 07:33:58;;;;;;;5.95;3.02;;;;;;;16.04;57.09;100005.16;2290706;78;21003;-83
2021/09/06 07:36:58;;;;;;;3.75;2.37;;;;;;;16.21;56.14;100007.93;2291255;78;21367;-80
2021/09/06 07:39:59;;;;;;;21.02;3.85;;;;;;;16.45;55.74;100007.22;2291533;78;20896;-79
2021/09/06 07:42:59;;;;;;;3.27;2.92;;;;;;;16.66;55.51;100009.17;2290353;78;20952;-81
2021/09/06 07:46:00;;;;;;;6.65;3.02;;;;;;;16.76;54.70;100003.08;2291057;78;21015;-80
2021/09/06 07:49:00;;;;;;;5.42;3.05;;;;;;;16.89;54.19;100003.58;2290498;78;20985;-82
2021/09/06 07:52:01;;;;;;;35.33;4.85;;;;;;;17.15;54.05;100006.33;2291631;78;20908;-80
2021/09/06 07:55:01;;;;;;;8.83;2.98;;;;;;;17.39;52.42;100000.28;2290929;78;21348;-81
2021/09/06 07:58:05;;;;;;;2.62;2.42;;;;;;;17.42;52.41;100001.61;2291354;78;20990;-82
2021/09/06 08:01:07;;;;;;;4.40;2.58;;;;;;;17.61;51.34;100010.45;2268412;78;20985;-81
2021/09/06 08:04:08;;;;;;;3.65;2.42;;;;;;;17.67;51.04;100010.05;2282767;78;21373;-81
2021/09/06 08:07:08;;;;;;;4.80;2.67;;;;;;;17.87;51.29;100008.76;2282059;78;20937;-81
2021/09/06 08:10:09;;;;;;;2.50;2.25;;;;;;;18.11;50.92;100007.89;2281870;78;20934;-80
2021/09/06 08:13:10;;;;;;;2.95;2.45;;;;;;;18.23;49.66;100011.88;2281231;78;20938;-80
2021/09/06 08:16:10;;;;;;;2.60;2.40;;;;;;;18.34;49.78;100007.47;2280329;78;20970;-81
2021/09/06 08:19:11;;;;;;;7.62;2.50;;;;;;;18.44;47.88;100009.21;2281511;78;20981;-82
2021/09/06 08:22:11;;;;;;;3.45;1.85;;;;;;;18.49;46.79;100010.97;2280768;78;20930;-80
2021/09/06 08:25:12;;;;;;;2.60;2.08;;;;;;;18.33;45.48;100008.34;2281243;77;20926;-79
2021/09/06 08:28:12;;;;;;;13.93;3.12;;;;;;;18.45;45.83;100015.38;2280381;78;20883;-81
2021/09/06 08:31:13;;;;;;;2.50;1.90;;;;;;;18.49;45.71;100017.58;2280514;78;20930;-83
2021/09/06 08:34:13;;;;;;;2.85;1.82;;;;;;;18.61;44.30;100021.52;2280486;78;20950;-81
2021/09/06 08:37:14;;;;;;;3.42;1.77;;;;;;;18.64;43.27;100018.47;2280286;78;21024;-80
2021/09/06 08:40:14;;;;;;;2.42;1.90;;;;;;;18.61;42.69;100023.76;2280556;78;20964;-82
2021/09/06 08:43:15;;;;;;;3.15;2.27;;;;;;;18.75;42.63;100029.90;2281060;77;21001;-82
2021/09/06 08:46:16;;;;;;;4.10;2.30;;;;;;;18.84;42.79;100029.44;2280555;78;21377;-82
2021/09/06 08:49:16;;;;;;;3.70;2.05;;;;;;;18.97;42.33;100020.57;2279438;78;20930;-81
2021/09/06 08:52:17;;;;;;;1.70;1.60;;;;;;;19.03;39.96;100018.78;2279224;78;21564;-84
2021/09/06 08:55:17;;;;;;;4.80;2.17;;;;;;;18.89;41.00;100017.08;2280307;77;21318;-81
2021/09/06 08:58:18;;;;;;;43.08;5.15;;;;;;;18.93;41.39;100025.44;2279907;78;21330;-81
2021/09/06 09:01:18;;;;;;;4.03;2.10;;;;;;;19.00;41.12;100016.59;2279830;78;21096;-82
2021/09/06 09:04:19;;;;;;;2.27;1.80;;;;;;;19.30;41.13;100011.20;2278795;77;21029;-80
2021/09/06 09:07:19;;;;;;;2.40;1.92;;;;;;;19.39;40.48;100015.57;2279707;78;20961;-82
2021/09/06 09:10:20;;;;;;;8.60;2.50;;;;;;;19.45;40.05;100004.94;2280073;78;20922;-81
2021/09/06 09:13:21;;;;;;;2.05;1.77;;;;;;;19.53;38.99;100008.46;2280344;78;21353;-83
2021/09/06 09:16:21;;;;;;;3.50;2.17;;;;;;;19.54;38.22;99999.63;2280644;78;20993;-81
2021/09/06 09:19:22;;;;;;;2.00;1.90;;;;;;;19.53;39.00;100003.61;2280228;78;20933;-81
2021/09/06 09:22:22;;;;;;;79.32;12.13;;;;;;;19.64;39.44;99994.70;2280187;78;20952;-82
2021/09/06 09:25:23;;;;;;;5.00;2.33;;;;;;;19.74;39.71;99999.50;2279712;78;20949;-81
2021/09/06 09:28:23;;;;;;;2.60;1.95;;;;;;;19.85;39.79;99999.42;2280084;78;21282;-84
2021/09/06 09:31:24;;;;;;;2.05;1.82;;;;;;;19.92;39.38;99999.80;2279510;78;20914;-82
2021/09/06 09:34:24;;;;;;;2.62;2.42;;;;;;;19.89;38.24;100001.16;2280248;78;21043;-83
2021/09/06 09:37:25;;;;;;;6.78;2.40;;;;;;;19.73;38.82;100005.23;2279946;78;20989;-83
2021/09/06 09:40:25;;;;;;;2.50;1.92;;;;;;;19.75;38.82;100004.34;2279203;78;20931;-81
2021/09/06 09:43:26;;;;;;;3.50;2.00;;;;;;;19.67;39.21;99997.78;2279561;78;20959;-81
2021/09/06 09:46:27;;;;;;;3.80;2.40;;;;;;;19.73;38.26;99993.77;2280045;78;20914;-82
2021/09/06 09:49:27;;;;;;;6.20;2.37;;;;;;;19.78;38.22;99999.03;2279896;78;20930;-81
2021/09/06 09:52:28;;;;;;;6.80;2.22;;;;;;;19.78;37.84;100003.88;2279619;78;21710;-83
2021/09/06 09:55:31;;;;;;;14.63;4.62;;;;;;;19.76;37.54;99989.77;2278781;78;20968;-82
2021/09/06 09:58:30;;;;;;;3.50;2.08;;;;;;;19.82;38.40;99991.05;2278827;78;21017;-81
2021/09/06 10:01:31;;;;;;;3.65;1.90;;;;;;;19.96;37.85;99981.70;2278626;78;20946;-82
2021/09/06 10:04:32;;;;;;;3.92;2.27;;;;;;;20.06;37.95;99976.75;2254103;77;20987;-81
2021/09/06 10:07:32;;;;;;;22.62;3.95;;;;;;;20.13;37.68;99973.16;2246459;78;21364;-80
2021/09/06 10:10:33;;;;;;;1.90;1.80;;;;;;;20.19;36.88;99974.88;2246152;78;20959;-82
2021/09/06 10:13:33;;;;;;;2.42;1.95;;;;;;;20.16;37.17;99973.58;2247450;78;20932;-83
2021/09/06 10:16:35;;;;;;;2.37;1.98;;;;;;;20.10;37.96;99970.53;2247897;78;20954;-81
2021/09/06 10:19:35;;;;;;;2.27;2.02;;;;;;;20.12;37.35;99966.09;2248046;79;20984;-82
2021/09/06 10:22:36;;;;;;;2.25;2.02;;;;;;;20.10;37.70;99967.00;2248698;78;20984;-82
2021/09/06 10:25:36;;;;;;;4.90;2.15;;;;;;;20.16;37.77;99964.30;2248107;78;21316;-83
2021/09/06 10:28:37;;;;;;;2.40;1.80;;;;;;;20.35;38.23;99961.45;2247525;79;20987;-80
2021/09/06 10:31:38;;;;;;;5.42;2.30;;;;;;;20.52;37.09;99953.36;2248875;78;20944;-82
2021/09/06 10:34:38;;;;;;;2.75;2.12;;;;;;;20.55;37.52;99955.09;2248444;78;21023;-83
2021/09/06 10:37:40;;;;;;;2.92;2.20;;;;;;;20.61;37.25;99956.35;2247974;78;20963;-82
2021/09/06 10:40:40;;;;;;;2.35;2.15;;;;;;;20.61;37.03;99959.01;2248192;79;20984;-82
2021/09/06 10:43:41;;;;;;;3.33;2.10;;;;;;;20.50;36.84;99953.81;2247705;78;21005;-82
2021/09/06 10:46:41;;;;;;;4.62;2.37;;;;;;;20.55;37.26;99952.44;2248266;78;20979;-81
2021/09/06 10:49:42;;;;;;;1.95;1.80;;;;;;;20.56;37.51;99947.13;2248125;78;20968;-81
2021/09/06 10:52:43;;;;;;;5.55;2.47;;;;;;;20.64;36.76;99943.05;2248392;78;21033;-83
2021/09/06 10:55:43;;;;;;;4.40;2.15;;;;;;;20.71;36.47;99944.73;2247533;79;21015;-83
2021/09/06 10:58:44;;;;;;;3.40;2.10;;;;;;;20.76;36.20;99952.64;2248382;78;20987;-82
2021/09/06 11:01:44;;;;;;;2.22;2.02;;;;;;;20.62;34.50;99947.50;2248341;79;20923;-82
2021/09/06 11:04:44;;;;;;;6.50;1.62;;;;;;;20.34;35.23;99949.09;2271380;77;21008;-82
2021/09/06 11:07:45;;;;;;;2.87;1.77;;;;;;;20.32;36.25;99942.05;2280245;78;21372;-82
2021/09/06 11:10:45;;;;;;;3.17;2.02;;;;;;;20.42;34.95;99942.41;2279433;78;21028;-84
2021/09/06 11:13:46;;;;;;;2.35;1.98;;;;;;;20.35;35.93;99953.50;2279815;78;20966;-82
2021/09/06 11:16:47;;;;;;;2.50;2.30;;;;;;;20.41;35.81;99941.98;2280670;77;20942;-82
2021/09/06 11:19:48;;;;;;;2.35;2.05;;;;;;;20.48;36.51;99941.47;2279528;78;20906;-82
2021/09/06 11:22:49;;;;;;;62.83;6.15;;;;;;;20.52;36.44;99946.72;2280058;78;20969;-82
2021/09/06 11:25:51;;;;;;;8.88;2.50;;;;;;;20.56;35.68;99943.59;2279907;78;20942;-82
2021/09/06 11:28:52;;;;;;;4.08;2.40;;;;;;;20.59;35.80;99935.15;2280741;78;21057;-82
2021/09/06 11:31:53;;;;;;;4.37;2.50;;;;;;;20.63;36.38;99933.34;2280316;77;21359;-83
2021/09/06 11:34:53;;;;;;;220.73;17.17;;;;;;;20.67;35.72;99931.95;2279698;78;21024;-81
2021/09/06 11:37:54;;;;;;;2.72;2.25;;;;;;;20.75;35.71;99927.89;2280019;78;20953;-82
2021/09/06 11:40:54;;;;;;;5.05;2.50;;;;;;;20.89;35.59;99917.13;2278087;78;20977;-82
2021/09/06 11:43:55;;;;;;;19.15;3.10;;;;;;;20.98;34.68;99915.23;2278977;78;20946;-84
2021/09/06 11:46:55;;;;;;;14.40;3.25;;;;;;;21.00;33.55;99909.91;2278904;78;20969;-83
2021/09/06 11:49:56;;;;;;;6.95;1.95;;;;;;;21.01;34.18;99908.13;2279374;78;20914;-81
2021/09/06 11:52:56;;;;;;;2.30;2.10;;;;;;;21.00;34.31;99899.28;2279665;78;20993;-82
2021/09/06 11:58:59;;;;;;;3.58;2.30;;;;;;;20.98;34.52;99910.37;2259441;78;20934;-83
2021/09/06 12:02:00;;;;;;;2.45;2.10;;;;;;;20.99;34.09;99905.05;2279691;78;20926;-83
2021/09/06 12:05:00;;;;;;;3.65;2.25;;;;;;;20.99;33.84;99911.68;2285608;78;21406;-83
2021/09/06 12:08:01;;;;;;;2.00;1.80;;;;;;;20.99;33.64;99909.03;2288561;78;21356;-86
2021/09/06 12:11:01;;;;;;;3.60;2.02;;;;;;;20.97;33.35;99907.30;2289102;78;20952;-81
2021/09/06 12:14:03;;;;;;;6.03;2.47;;;;;;;20.95;32.86;99903.78;2288232;78;20935;-77
2021/09/06 12:17:03;;;;;;;3.60;2.25;;;;;;;20.90;33.34;99903.84;2287494;78;21379;-77
2021/09/06 12:20:04;;;;;;;7.90;2.50;;;;;;;20.98;33.11;99898.44;2288650;78;20931;-76
2021/09/06 12:23:04;;;;;;;2.47;2.20;;;;;;;21.04;33.30;99898.34;2289100;78;20931;-76
2021/09/06 12:26:05;;;;;;;16.23;3.40;;;;;;;21.05;33.09;99897.89;2289720;78;20955;-76
2021/09/06 12:29:05;;;;;;;64.10;7.95;;;;;;;21.05;33.19;99893.47;2289751;78;21303;-77
2021/09/06 12:32:06;;;;;;;4.00;2.40;;;;;;;21.03;33.24;99886.42;2288366;78;20967;-76
2021/09/06 12:35:06;;;;;;;3.95;2.33;;;;;;;21.04;34.19;99883.75;2288134;78;21025;-76
2021/09/06 12:38:07;;;;;;;5.97;2.20;;;;;;;21.03;34.50;99881.99;2289730;78;20928;-76
2021/09/06 12:41:07;;;;;;;2.25;2.05;;;;;;;20.98;34.13;99878.08;2289101;78;21354;-77
2021/09/06 12:44:13;;;;;;;2.72;2.45;;;;;;;21.02;34.47;99880.23;2288505;78;20939;-77
2021/09/06 12:47:13;;;;;;;5.60;2.33;;;;;;;21.06;34.06;99878.41;2289495;78;20939;-77
2021/09/06 12:50:14;;;;;;;5.75;2.10;;;;;;;21.13;33.47;99873.45;2290281;78;21394;-76
2021/09/06 12:53:14;;;;;;;6.47;2.60;;;;;;;21.06;33.91;99871.33;2289260;78;20935;-76
2021/09/06 12:56:15;;;;;;;2.15;1.87;;;;;;;20.88;33.06;99870.27;2289479;78;20949;-76
2021/09/06 12:59:16;;;;;;;2.50;2.30;;;;;;;20.90;33.51;99869.34;2289254;78;20959;-77
2021/09/06 13:02:16;;;;;;;17.98;9.03;;;;;;;20.92;33.31;99866.22;2289319;78;20971;-77
2021/09/06 13:05:17;;;;;;;2.75;2.50;;;;;;;20.91;33.54;99864.46;2281014;78;21040;-76
2021/09/06 13:08:17;;;;;;;3.15;2.08;;;;;;;20.95;33.68;99863.97;2278484;78;20973;-76
2021/09/06 13:11:18;;;;;;;2.58;2.37;;;;;;;20.94;33.51;99861.77;2278116;78;20967;-77
2021/09/06 13:14:18;;;;;;;5.30;2.60;;;;;;;20.92;33.53;99863.56;2278315;78;21684;-78
2021/09/06 13:17:19;;;;;;;2.52;2.17;;;;;;;20.82;33.46;99858.41;2278383;78;21076;-76
2021/09/06 13:20:19;;;;;;;14.07;3.42;;;;;;;20.79;33.90;99853.11;2279214;78;20977;-76
2021/09/06 13:23:20;;;;;;;20.43;5.28;;;;;;;20.79;34.35;99853.98;2279936;78;21384;-79
2021/09/06 13:26:20;;;;;;;5.20;2.80;;;;;;;20.85;33.58;99853.94;2279900;78;20946;-77
2021/09/06 13:29:24;;;;;;;3.95;2.37;;;;;;;20.85;33.58;99847.30;2280170;78;21001;-77
2021/09/06 13:32:23;;;;;;;4.95;2.98;;;;;;;20.81;33.46;99849.56;2279831;78;20977;-77
2021/09/06 13:35:24;;;;;;;4.87;2.42;;;;;;;20.92;34.55;99846.77;2279330;78;20992;-76
2021/09/06 13:38:26;;;;;;;3.95;2.30;;;;;;;21.04;33.90;99845.70;2279396;78;20971;-77
2021/09/06 13:41:26;;;;;;;4.78;2.60;;;;;;;21.06;34.30;99846.56;2279592;78;20937;-76
2021/09/06 13:44:27;;;;;;;3.02;2.40;;;;;;;20.97;34.25;99837.83;2278452;78;20954;-77
2021/09/06 13:47:27;;;;;;;8.78;2.27;;;;;;;21.02;33.34;99840.42;2279840;78;20985;-77
2021/09/06 13:50:28;;;;;;;2.80;2.27;;;;;;;21.04;33.31;99838.63;2279991;78;20993;-76
2021/09/06 13:53:29;;;;;;;3.70;2.10;;;;;;;21.06;33.83;99842.13;2279718;78;20969;-77
2021/09/06 13:56:31;;;;;;;3.35;2.15;;;;;;;20.94;33.84;99835.23;2280933;78;20992;-77
2021/09/06 13:59:31;;;;;;;2.20;2.00;;;;;;;20.87;34.59;99840.19;2279861;78;20965;-77
2021/09/06 14:02:33;;;;;;;6.50;2.40;;;;;;;20.82;34.32;99832.75;2279942;78;20977;-78
2021/09/06 14:05:33;;;;;;;4.67;2.55;;;;;;;20.67;34.71;99839.11;2255459;77;21047;-81
2021/09/06 14:08:36;;;;;;;3.05;2.42;;;;;;;20.72;34.76;99835.06;2226773;79;20944;-82
2021/09/06 14:11:36;;;;;;;3.62;2.42;;;;;;;20.83;34.54;99844.23;2248662;79;20991;-82
2021/09/06 14:14:40;;;;;;;6.50;2.90;;;;;;;20.79;34.02;99836.73;2248704;78;20999;-83